createdAt,value
2023-03-24T00:00:00.414Z,22.71
2023-03-24T00:01:02.985Z,24.11
2023-03-24T00:02:05.606Z,24.51
2023-03-24T00:03:08.231Z,22.73
2023-03-24T00:04:11.041Z,23.71
2023-03-24T00:05:13.704Z,23.90
2023-03-24T00:06:16.318Z,24.05
2023-03-24T00:07:18.820Z,22.65
2023-03-24T00:08:21.376Z,23.22
2023-03-24T00:09:23.937Z,25.33
2023-03-24T00:10:26.691Z,24.01
2023-03-24T00:11:29.311Z,23.97
2023-03-24T00:12:31.899Z,22.99
2023-03-24T00:13:34.388Z,25.86
2023-03-24T00:14:36.980Z,24.19
2023-03-24T00:15:39.596Z,23.57
2023-03-24T00:16:42.400Z,24.74
2023-03-24T00:17:44.957Z,22.94
2023-03-24T00:18:47.705Z,24.72
2023-03-24T00:19:50.295Z,24.42
2023-03-24T00:20:53.025Z,24.50
2023-03-24T00:21:55.757Z,24.35
2023-03-24T00:22:58.322Z,25.02
2023-03-24T00:24:00.880Z,23.67
2023-03-24T00:25:03.445Z,23.97
2023-03-24T00:26:06.465Z,23.42
2023-03-24T00:27:09.140Z,25.73
2023-03-24T00:28:11.731Z,23.40
2023-03-24T00:29:14.290Z,23.83
2023-03-24T00:30:17.059Z,25.77
2023-03-24T00:31:19.670Z,25.42
2023-03-24T00:32:22.271Z,25.33
2023-03-24T00:33:24.874Z,25.77
2023-03-24T00:34:27.432Z,24.83
2023-03-24T00:35:29.993Z,23.83
2023-03-24T00:36:32.755Z,24.59
2023-03-24T00:37:35.348Z,24.61
2023-03-24T00:38:37.903Z,24.90
2023-03-24T00:39:40.363Z,24.80
2023-03-24T00:40:43.281Z,24.85
2023-03-24T00:41:46.203Z,24.91
2023-03-24T00:42:48.756Z,25.94
2023-03-24T00:43:51.318Z,25.97
2023-03-24T00:44:53.890Z,25.47
2023-03-24T00:45:56.482Z,24.37
2023-03-24T00:46:59.480Z,25.46
2023-03-24T00:48:02.227Z,23.73
2023-03-24T00:49:04.874Z,24.65
2023-03-24T00:50:07.883Z,25.66
2023-03-24T00:51:10.454Z,24.55
2023-03-24T00:52:13.008Z,25.05
2023-03-24T00:53:15.645Z,25.01
2023-03-24T00:54:18.338Z,26.11
2023-03-24T00:55:20.932Z,25.47
2023-03-24T00:56:23.805Z,26.13
2023-03-24T00:57:26.378Z,25.38
2023-03-24T00:58:28.906Z,25.53
2023-03-24T00:59:31.490Z,25.83
2023-03-24T01:00:34.233Z,27.14
2023-03-24T01:01:36.894Z,24.85
2023-03-24T01:02:39.440Z,23.85
2023-03-24T01:03:41.980Z,25.20
2023-03-24T01:04:44.441Z,26.80
2023-03-24T01:05:47.025Z,25.61
2023-03-24T01:06:49.887Z,24.74
2023-03-24T01:07:52.490Z,24.41
2023-03-24T01:08:55.019Z,25.03
2023-03-24T01:09:57.639Z,25.84
2023-03-24T01:11:00.563Z,25.34
2023-03-24T01:12:03.132Z,26.16
2023-03-24T01:13:05.701Z,25.55
2023-03-24T01:14:08.273Z,25.15
2023-03-24T01:15:10.881Z,26.07
2023-03-24T01:16:14.300Z,24.79
2023-03-24T01:17:16.918Z,23.83
2023-03-24T01:18:19.384Z,24.18
2023-03-24T01:19:21.942Z,24.43
2023-03-24T01:20:24.601Z,22.93
2023-03-24T01:21:27.274Z,25.77
2023-03-24T01:22:29.840Z,24.55
2023-03-24T01:23:32.422Z,26.49
2023-03-24T01:24:34.993Z,24.35
2023-03-24T01:25:37.551Z,25.82
2023-03-24T01:26:40.351Z,23.27
2023-03-24T01:27:42.950Z,24.27
2023-03-24T01:28:45.499Z,26.19
2023-03-24T01:29:48.060Z,24.58
2023-03-24T01:30:50.613Z,25.69
2023-03-24T01:31:53.499Z,24.59
2023-03-24T01:32:56.499Z,23.88
2023-03-24T01:33:59.286Z,25.01
2023-03-24T01:35:01.865Z,23.61
2023-03-24T01:36:04.649Z,24.54
2023-03-24T01:37:07.255Z,24.51
2023-03-24T01:38:09.824Z,23.80
2023-03-24T01:39:12.381Z,24.28
2023-03-24T01:40:15.700Z,23.80
2023-03-24T01:41:18.452Z,25.19
2023-03-24T01:42:21.046Z,24.71
2023-03-24T01:43:23.611Z,25.83
2023-03-24T01:44:26.090Z,23.89
2023-03-24T01:45:28.641Z,26.38
2023-03-24T01:46:31.303Z,24.86
2023-03-24T01:47:35.208Z,26.69
2023-03-24T01:48:37.886Z,23.14
2023-03-24T01:49:40.455Z,23.47
2023-03-24T01:50:43.500Z,23.28
2023-03-24T01:51:46.192Z,25.04
2023-03-24T01:52:48.818Z,25.23
2023-03-24T01:53:51.564Z,24.46
2023-03-24T01:54:54.127Z,23.90
2023-03-24T01:55:56.881Z,24.41
2023-03-24T01:56:59.575Z,22.99
2023-03-24T01:58:02.238Z,24.86
2023-03-24T01:59:04.794Z,24.77
2023-03-24T02:00:07.855Z,25.32
2023-03-24T02:01:10.435Z,23.73
2023-03-24T02:02:13.015Z,25.19
2023-03-24T02:03:15.904Z,23.96
2023-03-24T02:04:18.531Z,23.11
2023-03-24T02:05:21.064Z,24.89
2023-03-24T02:06:23.925Z,24.38
2023-03-24T02:07:26.540Z,25.04
2023-03-24T02:08:29.137Z,24.23
2023-03-24T02:09:31.702Z,25.81
2023-03-24T02:10:34.592Z,23.91
2023-03-24T02:11:37.187Z,23.30
2023-03-24T02:12:39.706Z,22.84
2023-03-24T02:13:42.274Z,23.46
2023-03-24T02:14:44.851Z,25.61
2023-03-24T02:15:47.439Z,24.01
2023-03-24T02:16:50.387Z,24.19
2023-03-24T02:17:53.009Z,22.91
2023-03-24T02:18:55.644Z,22.73
2023-03-24T02:19:58.218Z,24.89
2023-03-24T02:21:01.244Z,24.21
2023-03-24T02:22:04.015Z,22.65
2023-03-24T02:23:06.627Z,24.17
2023-03-24T02:24:09.280Z,23.65
2023-03-24T02:25:11.843Z,23.14
2023-03-24T02:26:14.610Z,24.52
2023-03-24T02:27:17.174Z,22.51
2023-03-24T02:28:19.773Z,23.77
2023-03-24T02:29:22.254Z,23.24
2023-03-24T02:30:24.996Z,23.63
2023-03-24T02:31:27.574Z,24.13
2023-03-24T02:32:30.183Z,23.01
2023-03-24T02:33:32.801Z,24.11
2023-03-24T02:34:35.729Z,23.84
2023-03-24T02:35:38.303Z,23.11
2023-03-24T02:36:41.059Z,23.19
2023-03-24T02:37:43.625Z,23.09
2023-03-24T02:38:46.465Z,23.20
2023-03-24T02:39:49.028Z,21.87
2023-03-24T02:40:51.727Z,22.51
2023-03-24T02:41:54.387Z,21.61
2023-03-24T02:42:56.952Z,22.15
2023-03-24T02:43:59.550Z,22.67
2023-03-24T02:45:02.151Z,22.31
2023-03-24T02:46:05.292Z,21.85
2023-03-24T02:47:07.992Z,23.37
2023-03-24T02:48:10.646Z,23.28
2023-03-24T02:49:13.294Z,22.71
2023-03-24T02:50:17.011Z,22.44
2023-03-24T02:51:19.614Z,21.84
2023-03-24T02:52:23.260Z,22.34
2023-03-24T02:53:25.960Z,22.19
2023-03-24T02:54:28.467Z,21.57
2023-03-24T02:55:31.040Z,24.73
2023-03-24T02:56:33.859Z,21.36
2023-03-24T02:57:36.577Z,22.84
2023-03-24T02:58:39.180Z,21.87
2023-03-24T02:59:41.778Z,23.21
2023-03-24T03:00:44.643Z,21.51
2023-03-24T03:01:47.611Z,24.06
2023-03-24T03:02:50.300Z,24.86
2023-03-24T03:03:53.258Z,22.90
2023-03-24T03:04:55.895Z,21.73
2023-03-24T03:05:58.452Z,21.45
2023-03-24T03:07:01.151Z,21.24
2023-03-24T03:08:03.743Z,22.47
2023-03-24T03:09:06.304Z,22.67
2023-03-24T03:10:09.520Z,20.79
2023-03-24T03:11:12.085Z,23.08
2023-03-24T03:12:14.654Z,22.25
2023-03-24T03:13:17.229Z,23.03
2023-03-24T03:14:19.839Z,22.63
2023-03-24T03:15:22.477Z,23.25
2023-03-24T03:16:25.171Z,22.37
2023-03-24T03:17:27.933Z,22.64
2023-03-24T03:18:30.566Z,22.38
2023-03-24T03:19:33.130Z,23.01
2023-03-24T03:20:35.905Z,22.67
2023-03-24T03:21:38.476Z,24.00
2023-03-24T03:22:41.057Z,23.94
2023-03-24T03:23:43.844Z,23.36
2023-03-24T03:24:46.398Z,24.45
2023-03-24T03:25:48.968Z,23.81
2023-03-24T03:26:51.527Z,23.49
2023-03-24T03:27:54.161Z,23.03
2023-03-24T03:28:56.772Z,24.52
2023-03-24T03:29:59.360Z,25.32
2023-03-24T03:31:02.021Z,24.81
2023-03-24T03:32:04.626Z,23.19
2023-03-24T03:33:07.276Z,24.59
2023-03-24T03:34:10.162Z,24.97
2023-03-24T03:35:12.868Z,25.51
2023-03-24T03:36:16.911Z,23.51
2023-03-24T03:37:19.514Z,23.99
2023-03-24T03:38:22.085Z,23.67
2023-03-24T03:39:24.638Z,23.04
2023-03-24T03:40:27.511Z,23.53
2023-03-24T03:41:30.108Z,24.77
2023-03-24T03:42:32.668Z,24.38
2023-03-24T03:43:35.225Z,24.08
2023-03-24T03:44:37.683Z,27.45
2023-03-24T03:45:40.249Z,23.39
2023-03-24T03:46:43.364Z,25.34
2023-03-24T03:47:46.255Z,23.44
2023-03-24T03:48:48.958Z,24.61
2023-03-24T03:49:51.520Z,23.67
2023-03-24T03:51:06.349Z,24.38
2023-03-24T03:51:58.971Z,24.98
2023-03-24T03:53:01.481Z,24.51
2023-03-24T03:54:04.366Z,24.88
2023-03-24T03:55:06.931Z,24.69
2023-03-24T03:56:10.008Z,24.49
2023-03-24T03:57:12.602Z,24.61
2023-03-24T03:58:15.153Z,24.68
2023-03-24T03:59:17.613Z,25.66
2023-03-24T04:00:20.467Z,25.08
2023-03-24T04:01:23.346Z,24.39
2023-03-24T04:02:26.094Z,23.24
2023-03-24T04:03:28.854Z,24.71
2023-03-24T04:04:31.376Z,23.49
2023-03-24T04:05:33.946Z,23.65
2023-03-24T04:06:36.714Z,24.00
2023-03-24T04:07:39.308Z,24.17
2023-03-24T04:08:42.038Z,25.94
2023-03-24T04:09:44.631Z,24.41
2023-03-24T04:10:47.401Z,24.96
2023-03-24T04:11:49.984Z,24.80
2023-03-24T04:12:52.587Z,22.48
2023-03-24T04:13:55.127Z,25.03
2023-03-24T04:14:57.688Z,23.90
2023-03-24T04:16:00.336Z,21.93
2023-03-24T04:17:02.876Z,24.61
2023-03-24T04:18:05.543Z,23.37
2023-03-24T04:19:08.113Z,21.63
2023-03-24T04:20:11.396Z,23.54
2023-03-24T04:21:13.957Z,23.07
2023-03-24T04:22:16.524Z,24.03
2023-03-24T04:23:18.936Z,23.22
2023-03-24T04:24:21.500Z,23.39
2023-03-24T04:25:24.068Z,23.57
2023-03-24T04:26:26.781Z,24.11
2023-03-24T04:27:29.304Z,23.43
2023-03-24T04:28:31.854Z,22.04
2023-03-24T04:29:34.428Z,22.36
2023-03-24T04:30:37.204Z,24.62
2023-03-24T04:31:39.841Z,24.12
2023-03-24T04:32:42.547Z,23.20
2023-03-24T04:33:45.182Z,22.07
2023-03-24T04:34:47.645Z,22.17
2023-03-24T04:35:50.240Z,23.57
2023-03-24T04:36:53.174Z,23.02
2023-03-24T04:37:55.740Z,22.95
2023-03-24T04:38:58.544Z,22.84
2023-03-24T04:40:01.074Z,22.22
2023-03-24T04:41:03.644Z,24.50
2023-03-24T04:42:06.200Z,24.26
2023-03-24T04:43:08.757Z,21.89
2023-03-24T04:44:11.339Z,23.45
2023-03-24T04:45:13.896Z,22.45
2023-03-24T04:46:16.554Z,22.78
2023-03-24T04:47:19.120Z,22.51
2023-03-24T04:48:21.712Z,23.71
2023-03-24T04:49:24.272Z,25.81
2023-03-24T04:50:27.280Z,24.72
2023-03-24T04:51:29.831Z,25.25
2023-03-24T04:52:32.404Z,24.55
2023-03-24T04:53:34.987Z,24.89
2023-03-24T04:54:37.578Z,25.41
2023-03-24T04:55:40.144Z,24.93
2023-03-24T04:56:43.166Z,23.16
2023-03-24T04:57:46.058Z,22.62
2023-03-24T04:58:48.731Z,23.88
2023-03-24T04:59:51.298Z,22.03
2023-03-24T05:00:54.349Z,23.81
2023-03-24T05:01:56.978Z,22.69
2023-03-24T05:02:59.598Z,22.07
2023-03-24T05:04:02.181Z,22.15
2023-03-24T05:05:04.896Z,23.32
2023-03-24T05:06:07.858Z,22.04
2023-03-24T05:07:10.417Z,21.92
2023-03-24T05:08:13.022Z,22.88
2023-03-24T05:09:15.615Z,21.82
2023-03-24T05:10:21.339Z,22.90
2023-03-24T05:11:22.996Z,23.06
2023-03-24T05:12:25.562Z,23.63
2023-03-24T05:13:28.069Z,24.60
2023-03-24T05:14:30.626Z,22.48
2023-03-24T05:15:33.190Z,26.13
2023-03-24T05:16:36.214Z,24.09
2023-03-24T05:17:38.839Z,21.18
2023-03-24T05:18:41.411Z,23.86
2023-03-24T05:19:44.156Z,22.73
2023-03-24T05:20:47.149Z,22.39
2023-03-24T05:21:49.858Z,24.45
2023-03-24T05:22:52.409Z,22.45
2023-03-24T05:23:55.174Z,22.65
2023-03-24T05:24:58.061Z,22.17
2023-03-24T05:26:00.637Z,22.87
2023-03-24T05:27:03.199Z,23.12
2023-03-24T05:28:05.800Z,22.16
2023-03-24T05:29:08.380Z,25.07
2023-03-24T05:30:11.453Z,23.77
2023-03-24T05:31:14.192Z,22.51
2023-03-24T05:32:16.826Z,21.85
2023-03-24T05:33:19.377Z,21.08
2023-03-24T05:34:21.935Z,22.04
2023-03-24T05:35:24.490Z,20.79
2023-03-24T05:36:27.204Z,22.05
2023-03-24T05:37:29.842Z,21.77
2023-03-24T05:38:32.403Z,20.95
2023-03-24T05:39:34.965Z,21.60
2023-03-24T05:40:37.533Z,20.06
2023-03-24T05:41:40.160Z,22.42
2023-03-24T05:42:42.616Z,21.79
2023-03-24T05:43:45.091Z,22.29
2023-03-24T05:44:47.644Z,19.37
2023-03-24T05:45:50.237Z,21.63
2023-03-24T05:46:53.260Z,23.21
2023-03-24T05:47:55.861Z,21.81
2023-03-24T05:48:58.617Z,20.76
2023-03-24T05:50:01.248Z,21.39
2023-03-24T05:51:03.948Z,20.89
2023-03-24T05:52:06.552Z,20.15
2023-03-24T05:53:09.326Z,20.61
2023-03-24T05:54:11.923Z,19.45
2023-03-24T05:55:14.508Z,19.65
2023-03-24T05:56:17.272Z,19.21
2023-03-24T05:57:19.872Z,20.27
2023-03-24T05:58:22.435Z,20.33
2023-03-24T05:59:25.001Z,19.03
2023-03-24T06:00:27.560Z,18.79
2023-03-24T06:01:30.147Z,18.75
2023-03-24T06:02:32.766Z,18.37
2023-03-24T06:03:35.767Z,20.04
2023-03-24T06:04:38.664Z,23.27
2023-03-24T06:05:41.187Z,20.41
2023-03-24T06:06:43.954Z,18.48
2023-03-24T06:07:46.630Z,18.45
2023-03-24T06:08:49.147Z,19.93
2023-03-24T06:09:51.717Z,18.47
2023-03-24T06:10:54.286Z,19.93
2023-03-24T06:11:56.826Z,19.73
2023-03-24T06:12:59.432Z,19.05
2023-03-24T06:14:02.007Z,19.42
2023-03-24T06:15:04.676Z,19.05
2023-03-24T06:16:07.608Z,21.20
2023-03-24T06:17:10.791Z,20.02
2023-03-24T06:18:13.370Z,21.29
2023-03-24T06:19:15.934Z,21.66
2023-03-24T06:20:19.092Z,19.89
2023-03-24T06:21:21.627Z,19.99
2023-03-24T06:22:24.189Z,19.02
2023-03-24T06:23:26.750Z,17.75
2023-03-24T06:24:30.250Z,19.55
2023-03-24T06:25:32.948Z,20.20
2023-03-24T06:26:35.603Z,20.80
2023-03-24T06:27:38.159Z,19.95
2023-03-24T06:28:40.804Z,20.66
2023-03-24T06:29:43.420Z,19.96
2023-03-24T06:30:46.291Z,19.30
2023-03-24T06:31:48.934Z,21.67
2023-03-24T06:32:51.607Z,21.39
2023-03-24T06:33:54.279Z,21.65
2023-03-24T06:34:56.846Z,23.15
2023-03-24T06:35:59.476Z,22.61
2023-03-24T06:37:02.272Z,21.69
2023-03-24T06:38:04.836Z,17.99
2023-03-24T06:39:07.425Z,21.37
2023-03-24T06:40:11.204Z,25.09
2023-03-24T06:41:13.790Z,27.65
2023-03-24T06:42:16.143Z,30.75
2023-03-24T06:43:18.605Z,32.53
2023-03-24T06:44:21.218Z,32.29
2023-03-24T06:45:23.788Z,33.53
2023-03-24T06:46:26.632Z,24.07
2023-03-24T06:47:29.274Z,23.73
2023-03-24T06:48:31.917Z,24.15
2023-03-24T06:49:34.561Z,26.00
2023-03-24T06:50:38.002Z,24.32
2023-03-24T06:51:41.546Z,23.45
2023-03-24T06:52:44.089Z,21.23
2023-03-24T06:53:46.651Z,20.71
2023-03-24T06:54:49.273Z,20.17
2023-03-24T06:55:51.829Z,21.81
2023-03-24T06:56:54.545Z,21.06
2023-03-24T06:57:57.168Z,17.41
2023-03-24T06:58:59.769Z,15.78
2023-03-24T07:00:02.569Z,17.21
2023-03-24T07:01:05.135Z,16.91
2023-03-24T07:02:07.750Z,17.59
2023-03-24T07:03:10.600Z,17.23
2023-03-24T07:04:13.413Z,17.44
2023-03-24T07:05:16.011Z,17.57
2023-03-24T07:06:18.884Z,15.87
2023-03-24T07:07:53.367Z,16.65
2023-03-24T07:08:37.392Z,14.55
2023-03-24T07:09:30.200Z,14.91
2023-03-24T07:10:32.900Z,14.64
2023-03-24T07:11:35.466Z,15.53
2023-03-24T07:12:38.095Z,15.33
2023-03-24T07:13:40.706Z,16.55
2023-03-24T07:14:43.235Z,18.85
2023-03-24T07:15:45.872Z,20.27
2023-03-24T07:16:48.683Z,18.99
2023-03-24T07:17:51.373Z,19.79
2023-03-24T07:18:53.978Z,18.89
2023-03-24T07:19:56.552Z,18.69
2023-03-24T07:20:59.375Z,18.32
2023-03-24T07:22:01.926Z,17.07
2023-03-24T07:23:04.515Z,17.15
2023-03-24T07:24:07.076Z,16.13
2023-03-24T07:25:10.150Z,15.46
2023-03-24T07:26:13.423Z,15.39
2023-03-24T07:27:16.025Z,16.01
2023-03-24T07:28:18.642Z,15.33
2023-03-24T07:29:21.156Z,15.06
2023-03-24T07:30:29.966Z,13.79
2023-03-24T07:31:28.410Z,12.38
2023-03-24T07:32:30.967Z,12.83
2023-03-24T07:33:33.798Z,11.36
2023-03-24T07:34:36.435Z,11.77
2023-03-24T07:35:39.028Z,12.13
2023-03-24T07:36:41.818Z,10.74
2023-03-24T07:37:44.394Z,10.47
2023-03-24T07:38:46.956Z,10.97
2023-03-24T07:39:49.517Z,10.31
2023-03-24T07:40:52.504Z,11.03
2023-03-24T07:41:55.121Z,10.63
2023-03-24T07:42:57.635Z,12.13
2023-03-24T07:44:00.236Z,10.65
2023-03-24T07:45:02.924Z,10.72
2023-03-24T07:46:06.102Z,10.96
2023-03-24T07:47:09.842Z,10.21
2023-03-24T07:48:12.497Z,10.47
2023-03-24T07:49:19.531Z,10.59
2023-03-24T07:50:20.190Z,9.28
2023-03-24T07:51:22.753Z,11.33
2023-03-24T07:52:25.340Z,8.77
2023-03-24T07:53:27.907Z,11.28
2023-03-24T07:54:30.502Z,10.95
2023-03-24T07:55:33.072Z,10.16
2023-03-24T07:56:35.845Z,9.44
2023-03-24T07:57:38.464Z,9.67
2023-03-24T07:58:41.031Z,8.65
2023-03-24T07:59:43.598Z,11.07
2023-03-24T08:00:46.894Z,11.25
2023-03-24T08:01:52.596Z,11.97
2023-03-24T08:02:54.450Z,11.09
2023-03-24T08:03:57.410Z,10.88
2023-03-24T08:05:00.342Z,10.58
2023-03-24T08:06:03.004Z,10.07
2023-03-24T08:07:05.665Z,10.77
2023-03-24T08:08:08.243Z,11.01
2023-03-24T08:09:10.844Z,9.97
2023-03-24T08:10:13.994Z,10.38
2023-03-24T08:11:16.463Z,9.87
2023-03-24T08:12:20.718Z,10.06
2023-03-24T08:13:23.423Z,9.15
2023-03-24T08:14:26.353Z,10.85
2023-03-24T08:15:29.196Z,10.24
2023-03-24T08:16:31.875Z,9.60
2023-03-24T08:17:34.448Z,10.03
2023-03-24T08:18:37.000Z,9.93
2023-03-24T08:19:52.022Z,10.01
2023-03-24T08:20:44.235Z,10.35
2023-03-24T08:21:47.014Z,11.69
2023-03-24T08:22:49.646Z,10.53
2023-03-24T08:23:52.351Z,8.78
2023-03-24T08:24:55.120Z,9.69
2023-03-24T08:25:57.705Z,9.14
2023-03-24T08:27:00.284Z,9.21
2023-03-24T08:28:02.899Z,10.01
2023-03-24T08:29:05.500Z,10.26
2023-03-24T08:30:08.734Z,9.71
2023-03-24T08:31:11.449Z,10.43
2023-03-24T08:32:14.041Z,9.87
2023-03-24T08:33:16.683Z,9.77
2023-03-24T08:34:19.421Z,9.74
2023-03-24T08:35:21.989Z,10.28
2023-03-24T08:36:24.705Z,9.37
2023-03-24T08:37:27.368Z,9.98
2023-03-24T08:38:29.967Z,9.65
2023-03-24T08:39:32.611Z,9.71
2023-03-24T08:40:35.489Z,9.68
2023-03-24T08:41:38.069Z,8.33
2023-03-24T08:42:40.663Z,9.42
2023-03-24T08:43:43.227Z,8.24
2023-03-24T08:44:45.846Z,9.29
2023-03-24T08:45:48.521Z,8.88
2023-03-24T08:46:51.732Z,9.39
2023-03-24T08:47:54.478Z,9.33
2023-03-24T08:48:57.044Z,10.13
2023-03-24T08:49:59.627Z,9.29
2023-03-24T08:51:02.368Z,9.84
2023-03-24T08:52:04.948Z,8.75
2023-03-24T08:53:07.552Z,8.64
2023-03-24T08:54:10.104Z,10.85
2023-03-24T08:55:12.722Z,9.07
2023-03-24T08:56:15.702Z,9.02
2023-03-24T08:57:18.312Z,7.26
2023-03-24T08:58:20.902Z,8.67
2023-03-24T08:59:23.435Z,9.96
2023-03-24T09:00:26.161Z,8.35
2023-03-24T09:01:28.778Z,6.53
2023-03-24T09:02:31.468Z,6.51
2023-03-24T09:03:34.090Z,8.92
2023-03-24T09:04:36.709Z,9.26
2023-03-24T09:05:44.690Z,7.58
2023-03-24T09:06:43.969Z,8.62
2023-03-24T09:07:46.533Z,8.99
2023-03-24T09:08:49.305Z,7.94
2023-03-24T09:09:52.293Z,8.99
2023-03-24T09:10:54.958Z,7.87
2023-03-24T09:11:57.528Z,7.65
2023-03-24T09:13:00.161Z,8.97
2023-03-24T09:14:02.721Z,8.31
2023-03-24T09:15:05.276Z,8.55
2023-03-24T09:16:08.029Z,7.04
2023-03-24T09:17:10.610Z,8.77
2023-03-24T09:18:13.199Z,7.78
2023-03-24T09:19:15.748Z,5.21
2023-03-24T09:20:18.639Z,5.44
2023-03-24T09:21:21.273Z,5.37
2023-03-24T09:22:23.823Z,6.93
2023-03-24T09:23:26.359Z,6.35
2023-03-24T09:24:28.923Z,6.53
2023-03-24T09:25:31.481Z,6.85
2023-03-24T09:26:34.364Z,5.59
2023-03-24T09:27:36.934Z,7.00
2023-03-24T09:28:39.519Z,5.99
2023-03-24T09:29:42.082Z,6.09
2023-03-24T09:30:45.092Z,7.29
2023-03-24T09:31:47.806Z,4.78
2023-03-24T09:32:50.768Z,7.14
2023-03-24T09:33:53.405Z,6.81
2023-03-24T09:34:55.999Z,6.03
2023-03-24T09:36:00.137Z,6.87
2023-03-24T09:37:02.982Z,6.39
2023-03-24T09:38:05.565Z,5.07
2023-03-24T09:39:08.125Z,7.39
2023-03-24T09:40:11.524Z,7.69
2023-03-24T09:41:14.164Z,7.21
2023-03-24T09:42:16.778Z,5.85
2023-03-24T09:43:19.317Z,8.22
2023-03-24T09:44:21.963Z,6.21
2023-03-24T09:45:24.536Z,5.04
2023-03-24T09:46:27.208Z,6.78
2023-03-24T09:47:29.926Z,5.99
2023-03-24T09:48:32.493Z,6.27
2023-03-24T09:49:35.067Z,5.75
2023-03-24T09:50:37.843Z,5.87
2023-03-24T09:51:40.405Z,4.85
2023-03-24T09:52:43.319Z,7.18
2023-03-24T09:53:45.862Z,7.67
2023-03-24T09:54:48.424Z,6.83
2023-03-24T09:55:50.991Z,7.97
2023-03-24T09:56:53.912Z,7.80
2023-03-24T09:57:56.532Z,6.44
2023-03-24T09:58:59.093Z,7.47
2023-03-24T10:00:01.759Z,7.19
2023-03-24T10:01:04.383Z,7.66
2023-03-24T10:02:06.996Z,9.28
2023-03-24T10:03:09.617Z,7.94
2023-03-24T10:04:12.512Z,7.86
2023-03-24T10:05:15.226Z,6.96
2023-03-24T10:06:17.897Z,7.34
2023-03-24T10:07:20.462Z,6.35
2023-03-24T10:08:23.037Z,7.28
2023-03-24T10:09:25.651Z,4.52
2023-03-24T10:10:28.337Z,6.37
2023-03-24T10:11:30.888Z,7.12
2023-03-24T10:12:33.604Z,5.89
2023-03-24T10:13:36.293Z,6.71
2023-03-24T10:14:39.047Z,7.05
2023-03-24T10:15:41.760Z,7.02
2023-03-24T10:16:44.649Z,7.05
2023-03-24T10:17:47.228Z,7.39
2023-03-24T10:18:50.117Z,7.14
2023-03-24T10:19:55.549Z,6.79
2023-03-24T10:20:57.433Z,7.24
2023-03-24T10:21:59.999Z,8.09
2023-03-24T10:23:02.585Z,7.93
2023-03-24T10:24:06.865Z,9.02
2023-03-24T10:25:09.670Z,6.97
2023-03-24T10:26:12.653Z,6.28
2023-03-24T10:27:15.365Z,7.33
2023-03-24T10:28:17.931Z,7.49
2023-03-24T10:29:20.502Z,6.35
2023-03-24T10:30:23.358Z,7.17
2023-03-24T10:31:25.941Z,6.78
2023-03-24T10:32:28.497Z,6.78
2023-03-24T10:33:31.106Z,6.69
2023-03-24T10:34:33.712Z,6.64
2023-03-24T10:35:36.351Z,7.07
2023-03-24T10:36:39.302Z,7.46
2023-03-24T10:37:41.981Z,6.15
2023-03-24T10:38:44.518Z,6.24
2023-03-24T10:39:47.087Z,6.45
2023-03-24T10:40:50.122Z,6.76
2023-03-24T10:41:52.707Z,4.23
2023-03-24T10:43:07.108Z,5.51
2023-03-24T10:43:59.638Z,4.33
2023-03-24T10:45:02.206Z,6.10
2023-03-24T10:46:05.009Z,5.54
2023-03-24T10:47:07.579Z,6.81
2023-03-24T10:48:10.228Z,6.45
2023-03-24T10:49:12.862Z,5.84
2023-03-24T10:50:15.970Z,6.59
2023-03-24T10:51:18.761Z,6.67
2023-03-24T10:52:21.374Z,6.55
2023-03-24T10:53:23.928Z,6.08
2023-03-24T10:54:26.501Z,5.20
2023-03-24T10:55:29.090Z,4.85
2023-03-24T10:56:31.970Z,6.52
2023-03-24T10:57:34.506Z,6.22
2023-03-24T10:58:37.077Z,5.79
2023-03-24T10:59:39.647Z,6.15
2023-03-24T11:00:42.802Z,5.16
2023-03-24T11:01:45.708Z,5.28
2023-03-24T11:02:48.574Z,6.73
2023-03-24T11:03:51.318Z,6.41
2023-03-24T11:04:53.900Z,5.97
2023-03-24T11:05:56.457Z,5.21
2023-03-24T11:07:01.399Z,6.83
2023-03-24T11:08:03.665Z,6.09
2023-03-24T11:09:06.225Z,6.62
2023-03-24T11:10:09.415Z,6.47
2023-03-24T11:11:12.078Z,5.69
2023-03-24T11:12:14.652Z,6.75
2023-03-24T11:13:18.850Z,6.24
2023-03-24T11:14:21.630Z,6.09
2023-03-24T11:15:24.240Z,5.66
2023-03-24T11:16:26.981Z,6.14
2023-03-24T11:17:29.561Z,7.61
2023-03-24T11:18:32.106Z,4.91
2023-03-24T11:19:34.675Z,7.20
2023-03-24T11:20:37.259Z,5.89
2023-03-24T11:21:39.910Z,5.05
2023-03-24T11:22:42.577Z,6.39
2023-03-24T11:23:45.129Z,7.45
2023-03-24T11:24:47.760Z,5.94
2023-03-24T11:25:50.507Z,6.89
2023-03-24T11:26:53.609Z,5.76
2023-03-24T11:27:56.174Z,5.88
2023-03-24T11:28:58.793Z,5.97
2023-03-24T11:30:01.345Z,6.68
2023-03-24T11:31:03.924Z,7.33
2023-03-24T11:32:06.478Z,7.47
2023-03-24T11:33:09.349Z,6.39
2023-03-24T11:34:11.968Z,5.99
2023-03-24T11:35:14.526Z,6.49
2023-03-24T11:36:17.348Z,6.48
2023-03-24T11:37:19.988Z,6.23
2023-03-24T11:38:22.422Z,5.63
2023-03-24T11:39:24.999Z,6.25
2023-03-24T11:40:27.965Z,5.39
2023-03-24T11:41:30.537Z,7.45
2023-03-24T11:42:33.124Z,5.28
2023-03-24T11:43:35.704Z,5.80
2023-03-24T11:44:38.293Z,6.85
2023-03-24T11:45:40.854Z,4.33
2023-03-24T11:46:43.782Z,5.55
2023-03-24T11:47:46.454Z,5.06
2023-03-24T11:48:49.362Z,5.64
2023-03-24T11:49:51.945Z,4.75
2023-03-24T11:50:54.797Z,6.62
2023-03-24T11:51:57.381Z,5.95
2023-03-24T11:52:59.927Z,6.59
2023-03-24T11:54:02.501Z,5.07
2023-03-24T11:55:05.122Z,8.11
2023-03-24T11:56:08.019Z,6.83
2023-03-24T11:57:10.675Z,7.29
2023-03-24T11:58:13.406Z,5.77
2023-03-24T11:59:15.978Z,5.74
2023-03-24T12:00:19.087Z,6.64
2023-03-24T12:01:22.267Z,6.25
2023-03-24T12:02:24.916Z,4.58
2023-03-24T12:03:27.642Z,6.11
2023-03-24T12:04:30.290Z,6.18
2023-03-24T12:05:33.082Z,5.67
2023-03-24T12:06:35.948Z,6.11
2023-03-24T12:07:38.523Z,7.23
2023-03-24T12:08:41.090Z,5.57
2023-03-24T12:09:43.810Z,6.47
2023-03-24T12:10:46.644Z,5.31
2023-03-24T12:11:49.244Z,6.12
2023-03-24T12:12:52.353Z,7.36
2023-03-24T12:13:54.916Z,6.40
2023-03-24T12:14:57.492Z,6.72
2023-03-24T12:16:00.163Z,6.61
2023-03-24T12:17:02.974Z,6.42
2023-03-24T12:18:05.600Z,4.69
2023-03-24T12:19:08.334Z,7.46
2023-03-24T12:20:11.911Z,6.76
2023-03-24T12:21:14.535Z,6.87
2023-03-24T12:22:17.101Z,6.86
2023-03-24T12:23:19.664Z,6.29
2023-03-24T12:24:22.465Z,6.31
2023-03-24T12:25:25.024Z,6.92
2023-03-24T12:26:27.947Z,7.20
2023-03-24T12:27:30.522Z,6.37
2023-03-24T12:28:33.076Z,6.77
2023-03-24T12:29:35.663Z,7.49
2023-03-24T12:30:38.550Z,5.01
2023-03-24T12:31:41.145Z,6.95
2023-03-24T12:32:43.901Z,5.50
2023-03-24T12:33:46.469Z,6.57
2023-03-24T12:34:48.939Z,7.05
2023-03-24T12:35:51.672Z,7.15
2023-03-24T12:36:54.900Z,5.17
2023-03-24T12:37:57.460Z,6.33
2023-03-24T12:39:00.054Z,6.60
2023-03-24T12:40:02.917Z,6.74
2023-03-24T12:41:05.480Z,6.65
2023-03-24T12:42:08.063Z,6.79
2023-03-24T12:43:10.669Z,6.87
2023-03-24T12:44:13.214Z,5.45
2023-03-24T12:45:15.768Z,5.93
2023-03-24T12:46:18.974Z,7.81
2023-03-24T12:47:21.553Z,8.33
2023-03-24T12:48:24.159Z,5.03
2023-03-24T12:49:26.945Z,7.41
2023-03-24T12:50:29.638Z,7.19
2023-03-24T12:51:32.470Z,6.41
2023-03-24T12:52:35.309Z,6.59
2023-03-24T12:53:37.776Z,7.13
2023-03-24T12:54:40.367Z,5.16
2023-03-24T12:55:42.939Z,7.59
2023-03-24T12:56:45.613Z,7.46
2023-03-24T12:57:48.232Z,4.75
2023-03-24T12:58:50.812Z,8.26
2023-03-24T12:59:53.366Z,7.82
2023-03-24T13:00:56.603Z,6.70
2023-03-24T13:01:59.340Z,6.32
2023-03-24T13:03:02.031Z,5.35
2023-03-24T13:04:04.926Z,7.69
2023-03-24T13:05:07.504Z,7.20
2023-03-24T13:06:16.834Z,7.06
2023-03-24T13:07:14.695Z,7.42
2023-03-24T13:08:17.481Z,4.86
2023-03-24T13:09:20.060Z,5.96
2023-03-24T13:10:22.721Z,5.71
2023-03-24T13:11:32.809Z,6.21
2023-03-24T13:12:30.009Z,5.85
2023-03-24T13:13:32.607Z,6.90
2023-03-24T13:14:35.338Z,6.76
2023-03-24T13:15:37.911Z,6.50
2023-03-24T13:16:40.632Z,5.23
2023-03-24T13:17:44.919Z,6.58
2023-03-24T13:18:47.607Z,7.08
2023-03-24T13:19:50.161Z,6.36
2023-03-24T13:20:52.824Z,7.59
2023-03-24T13:21:55.413Z,6.63
2023-03-24T13:22:57.981Z,6.81
2023-03-24T13:24:00.609Z,5.26
2023-03-24T13:25:03.404Z,7.45
2023-03-24T13:26:06.175Z,7.98
2023-03-24T13:27:08.744Z,6.71
2023-03-24T13:28:11.339Z,5.06
2023-03-24T13:29:13.928Z,5.21
2023-03-24T13:30:16.662Z,7.25
2023-03-24T13:31:19.274Z,7.13
2023-03-24T13:32:21.902Z,7.52
2023-03-24T13:33:24.445Z,7.09
2023-03-24T13:34:26.949Z,6.12
2023-03-24T13:35:29.591Z,6.48
2023-03-24T13:36:32.288Z,6.32
2023-03-24T13:37:34.864Z,7.21